Time;durP1;ratioP1;P1;durP2;ratioP2;P2;SDS_P1;SDS_P2;PMS_P1;PMS_P2;Temp;Humidity;BMP_temperature;BMP_pressure;BME280_temperature;BME280_humidity;BME280_pressure;Samples;Min_cycle;Max_cycle;Signal;HPM_P1;HPM_P2
2023/07/26 00:00:18;;;;;;;8.60;2.10;;;;;;;-128.00;-1.00;-1.00;106673;1253;1012587;-71
2023/07/26 00:03:58;;;;;;;;;;;;;;;;;;;;;
2023/07/26 00:07:10;;;;;;;9.30;2.40;;;;;;;-128.00;-1.00;-1.00;106790;1253;1011396;-70
2023/07/26 00:10:13;;;;;;;9.70;2.40;;;;;;;-128.00;-1.00;-1.00;106643;1257;1012776;-71
2023/07/26 00:12:59;;;;;;;10.00;2.30;;;;;;;-128.00;-1.00;-1.00;106852;1253;1012345;-71
2023/07/26 00:15:46;;;;;;;11.80;2.40;;;;;;;-128.00;-1.00;-1.00;106890;1253;1012649;-70
2023/07/26 00:18:41;;;;;;;8.40;2.30;;;;;;;-128.00;-1.00;-1.00;106654;1253;1009878;-71
2023/07/26 00:21:35;;;;;;;8.00;2.40;;;;;;;-128.00;-1.00;-1.00;106510;1253;1011295;-71
2023/07/26 00:24:34;;;;;;;7.70;2.60;;;;;;;-128.00;-1.00;-1.00;106718;1254;1012646;-71
2023/07/26 00:27:37;;;;;;;8.30;2.30;;;;;;;-128.00;-1.00;-1.00;106559;1253;1012797;-69
2023/07/26 00:30:33;;;;;;;10.80;2.10;;;;;;;-128.00;-1.00;-1.00;106586;1253;1012951;-71
2023/07/26 00:33:50;;;;;;;7.80;2.80;;;;;;;-128.00;-1.00;-1.00;106627;1253;1010212;-69
2023/07/26 00:37:15;;;;;;;9.20;2.30;;;;;;;-128.00;-1.00;-1.00;106700;1254;1010927;-70
2023/07/26 00:40:36;;;;;;;8.50;2.60;;;;;;;-128.00;-1.00;-1.00;106540;1254;1012950;-72
2023/07/26 00:43:28;;;;;;;7.60;2.50;;;;;;;-128.00;-1.00;-1.00;106459;1254;1012973;-73
2023/07/26 00:46:16;;;;;;;6.40;2.20;;;;;;;-128.00;-1.00;-1.00;106548;1253;1012136;-70
2023/07/26 00:49:04;;;;;;;10.00;2.50;;;;;;;-128.00;-1.00;-1.00;106648;1253;1009736;-72
2023/07/26 00:51:51;;;;;;;8.10;2.60;;;;;;;-128.00;-1.00;-1.00;106708;1253;1010644;-68
2023/07/26 00:54:37;;;;;;;9.70;2.40;;;;;;;-128.00;-1.00;-1.00;106586;1253;1012447;-71
2023/07/26 01:01:09;;;;;;;12.40;2.60;;;;;;;-128.00;-1.00;-1.00;106635;1253;1012887;-69
2023/07/26 01:03:58;;;;;;;12.70;2.70;;;;;;;-128.00;-1.00;-1.00;106693;1253;1009654;-69
2023/07/26 01:07:35;;;;;;;7.40;2.20;;;;;;;-128.00;-1.00;-1.00;106577;1253;1011035;-70
2023/07/26 01:11:07;;;;;;;8.30;2.30;;;;;;;-128.00;-1.00;-1.00;106168;1261;1013032;-71
2023/07/26 01:14:15;;;;;;;9.80;2.60;;;;;;;-128.00;-1.00;-1.00;106157;1261;1012924;-71
2023/07/26 01:17:04;;;;;;;9.50;2.50;;;;;;;-128.00;-1.00;-1.00;106235;1262;1013302;-68
2023/07/26 01:19:51;;;;;;;9.80;2.40;;;;;;;-128.00;-1.00;-1.00;106161;1261;1009707;-70
2023/07/26 01:22:39;;;;;;;10.10;2.50;;;;;;;-128.00;-1.00;-1.00;106226;1261;1011494;-70
2023/07/26 01:25:25;;;;;;;8.50;2.30;;;;;;;-128.00;-1.00;-1.00;106271;1262;1012601;-70
2023/07/26 01:28:15;;;;;;;8.90;2.70;;;;;;;-128.00;-1.00;-1.00;106041;1262;1012926;-70
2023/07/26 01:31:08;;;;;;;7.80;2.10;;;;;;;-128.00;-1.00;-1.00;106156;1262;1012181;-70
2023/07/26 01:33:58;;;;;;;9.10;3.00;;;;;;;-128.00;-1.00;-1.00;106162;1261;1009857;-70
2023/07/26 01:36:54;;;;;;;8.40;2.50;;;;;;;-128.00;-1.00;-1.00;106251;1261;1011452;-70
2023/07/26 01:40:22;;;;;;;7.40;2.10;;;;;;;-128.00;-1.00;-1.00;106193;1261;1012984;-71
2023/07/26 01:44:14;;;;;;;7.60;2.60;;;;;;;-128.00;-1.00;-1.00;106254;1262;1013871;-71
2023/07/26 01:47:37;;;;;;;7.20;2.40;;;;;;;-128.00;-1.00;-1.00;106626;1253;1011822;-70
2023/07/26 01:50:55;;;;;;;12.80;2.40;;;;;;;-128.00;-1.00;-1.00;106620;1253;1010503;-69
2023/07/26 01:54:02;;;;;;;11.20;2.20;;;;;;;-128.00;-1.00;-1.00;106598;1253;1011406;-72
2023/07/26 01:56:50;;;;;;;8.80;2.00;;;;;;;-128.00;-1.00;-1.00;106551;1253;1012587;-70
2023/07/26 01:59:51;;;;;;;10.10;2.20;;;;;;;-128.00;-1.00;-1.00;106877;1258;1012567;-69
2023/07/26 02:03:06;;;;;;;10.80;2.30;;;;;;;-128.00;-1.00;-1.00;106500;1254;1013791;-72
2023/07/26 02:09:37;;;;;;;10.40;2.80;;;;;;;-128.00;-1.00;-1.00;106537;1253;1011660;-69
2023/07/26 02:12:23;;;;;;;11.30;2.60;;;;;;;-128.00;-1.00;-1.00;106913;1253;1012694;-71
2023/07/26 02:15:10;;;;;;;9.20;2.20;;;;;;;-128.00;-1.00;-1.00;106513;1253;1012893;-72
2023/07/26 02:17:58;;;;;;;8.60;2.10;;;;;;;-128.00;-1.00;-1.00;106890;1253;1012576;-70
2023/07/26 02:21:37;;;;;;;6.90;2.00;;;;;;;-128.00;-1.00;-1.00;106721;1254;1010474;-70
2023/07/26 02:24:27;;;;;;;9.20;2.50;;;;;;;-128.00;-1.00;-1.00;106580;1253;1011546;-66
2023/07/26 02:27:34;;;;;;;8.80;2.30;;;;;;;-128.00;-1.00;-1.00;106616;1253;1012117;-70
2023/07/26 02:30:42;;;;;;;9.00;2.30;;;;;;;-128.00;-1.00;-1.00;106756;1253;1013194;-69
2023/07/26 02:33:35;;;;;;;10.60;2.50;;;;;;;-128.00;-1.00;-1.00;106484;1253;1013318;-70
2023/07/26 02:36:29;;;;;;;11.90;2.70;;;;;;;-128.00;-1.00;-1.00;106555;1254;1010025;-70
2023/07/26 02:39:29;;;;;;;10.00;2.40;;;;;;;-128.00;-1.00;-1.00;106540;1254;1010821;-70
2023/07/26 02:42:23;;;;;;;9.80;2.20;;;;;;;-128.00;-1.00;-1.00;106511;1254;1013522;-71
2023/07/26 02:45:09;;;;;;;8.20;2.00;;;;;;;-128.00;-1.00;-1.00;106546;1254;1012813;-71
2023/07/26 02:47:56;;;;;;;8.30;2.30;;;;;;;-128.00;-1.00;-1.00;106524;1253;1012848;-70
2023/07/26 02:50:42;;;;;;;7.70;2.40;;;;;;;-128.00;-1.00;-1.00;106658;1254;1009186;-70
2023/07/26 02:53:43;;;;;;;7.80;2.20;;;;;;;-128.00;-1.00;-1.00;106728;1253;1011322;-70
2023/07/26 02:56:30;;;;;;;8.10;2.10;;;;;;;-128.00;-1.00;-1.00;106690;1253;1012475;-69
2023/07/26 02:59:18;;;;;;;8.50;2.50;;;;;;;-128.00;-1.00;-1.00;106791;1258;1012262;-69
2023/07/26 03:02:04;;;;;;;6.80;1.90;;;;;;;-128.00;-1.00;-1.00;106726;1253;1012690;-69
2023/07/26 03:04:51;;;;;;;10.40;2.80;;;;;;;-128.00;-1.00;-1.00;106698;1253;1009792;-70
2023/07/26 03:08:05;;;;;;;8.60;2.50;;;;;;;-128.00;-1.00;-1.00;106669;1254;1010334;-69
2023/07/26 03:11:00;;;;;;;7.80;2.10;;;;;;;-128.00;-1.00;-1.00;106698;1254;1013149;-69
2023/07/26 03:14:06;;;;;;;8.30;2.40;;;;;;;-128.00;-1.00;-1.00;106607;1253;1013392;-69
2023/07/26 03:16:52;;;;;;;9.10;2.90;;;;;;;-128.00;-1.00;-1.00;106620;1253;1013131;-71
2023/07/26 03:19:39;;;;;;;10.30;2.40;;;;;;;-128.00;-1.00;-1.00;106666;1253;1010403;-70
2023/07/26 03:22:27;;;;;;;9.60;2.70;;;;;;;-128.00;-1.00;-1.00;106725;1253;1011350;-70
2023/07/26 03:25:13;;;;;;;11.40;2.60;;;;;;;-128.00;-1.00;-1.00;106681;1253;1013313;-70
2023/07/26 03:28:03;;;;;;;8.70;2.30;;;;;;;-128.00;-1.00;-1.00;106902;1253;1012449;-71
2023/07/26 03:30:51;;;;;;;11.30;2.60;;;;;;;-128.00;-1.00;-1.00;106583;1253;1012851;-70
2023/07/26 03:33:38;;;;;;;8.40;2.60;;;;;;;-128.00;-1.00;-1.00;106514;1253;1009991;-69
2023/07/26 03:36:25;;;;;;;9.30;2.40;;;;;;;-128.00;-1.00;-1.00;106624;1254;1011493;-73
2023/07/26 03:39:12;;;;;;;10.60;2.60;;;;;;;-128.00;-1.00;-1.00;106836;1253;1012918;-70
2023/07/26 03:42:00;;;;;;;10.30;2.70;;;;;;;-128.00;-1.00;-1.00;106609;1254;1012539;-71
2023/07/26 03:44:49;;;;;;;9.00;2.40;;;;;;;-128.00;-1.00;-1.00;106522;1260;1013279;-71
2023/07/26 03:47:36;;;;;;;10.50;2.50;;;;;;;-128.00;-1.00;-1.00;106667;1253;1009914;-70
2023/07/26 03:50:23;;;;;;;8.70;2.20;;;;;;;-128.00;-1.00;-1.00;106602;1254;1010184;-70
2023/07/26 03:53:10;;;;;;;8.90;2.50;;;;;;;-128.00;-1.00;-1.00;106769;1253;1012394;-71
2023/07/26 03:55:56;;;;;;;9.70;2.20;;;;;;;-128.00;-1.00;-1.00;106677;1253;1011976;-70
2023/07/26 03:58:42;;;;;;;9.10;2.40;;;;;;;-128.00;-1.00;-1.00;106771;1253;1012949;-71
2023/07/26 04:01:29;;;;;;;9.00;2.20;;;;;;;-128.00;-1.00;-1.00;106805;1253;1008969;-69
2023/07/26 04:04:17;;;;;;;8.90;2.10;;;;;;;-128.00;-1.00;-1.00;106845;1253;1010930;-71
2023/07/26 04:07:04;;;;;;;8.20;2.40;;;;;;;-128.00;-1.00;-1.00;106684;1253;1012757;-70
2023/07/26 04:09:51;;;;;;;10.70;2.30;;;;;;;-128.00;-1.00;-1.00;106553;1256;1013501;-72
2023/07/26 04:12:38;;;;;;;9.20;2.20;;;;;;;-128.00;-1.00;-1.00;106514;1253;1012188;-72
2023/07/26 04:15:25;;;;;;;8.60;2.30;;;;;;;-128.00;-1.00;-1.00;106576;1253;1009656;-72
2023/07/26 04:18:12;;;;;;;9.70;2.10;;;;;;;-128.00;-1.00;-1.00;106584;1253;1011404;-70
2023/07/26 04:20:58;;;;;;;9.40;2.70;;;;;;;-128.00;-1.00;-1.00;106616;1254;1013525;-70
2023/07/26 04:23:48;;;;;;;8.20;2.10;;;;;;;-128.00;-1.00;-1.00;106476;1258;1012270;-72
2023/07/26 04:26:34;;;;;;;7.50;2.50;;;;;;;-128.00;-1.00;-1.00;106784;1253;1012211;-72
2023/07/26 04:29:22;;;;;;;11.90;2.50;;;;;;;-128.00;-1.00;-1.00;106465;1254;1010491;-70
2023/07/26 04:32:08;;;;;;;12.10;2.60;;;;;;;-128.00;-1.00;-1.00;106619;1256;1011055;-71
2023/07/26 04:34:55;;;;;;;7.70;2.10;;;;;;;-128.00;-1.00;-1.00;106704;1253;1013445;-72
2023/07/26 04:37:42;;;;;;;10.40;2.20;;;;;;;-128.00;-1.00;-1.00;106624;1259;1011802;-71
2023/07/26 04:40:28;;;;;;;6.90;2.10;;;;;;;-128.00;-1.00;-1.00;106538;1258;1012743;-73
2023/07/26 04:43:21;;;;;;;7.50;1.90;;;;;;;-128.00;-1.00;-1.00;106881;1253;1010604;-71
2023/07/26 04:46:08;;;;;;;6.70;1.90;;;;;;;-128.00;-1.00;-1.00;106561;1254;1011518;-72
2023/07/26 04:48:55;;;;;;;9.10;1.80;;;;;;;-128.00;-1.00;-1.00;106649;1252;1012672;-71
2023/07/26 04:51:41;;;;;;;6.50;1.80;;;;;;;-128.00;-1.00;-1.00;106434;1259;1011661;-73
2023/07/26 04:54:28;;;;;;;10.30;2.10;;;;;;;-128.00;-1.00;-1.00;106532;1253;1012923;-66
2023/07/26 04:57:14;;;;;;;10.10;2.60;;;;;;;-128.00;-1.00;-1.00;106570;1253;1009575;-67
2023/07/26 05:00:00;;;;;;;8.40;2.10;;;;;;;-128.00;-1.00;-1.00;106779;1254;1010692;-68
2023/07/26 05:02:47;;;;;;;7.80;1.70;;;;;;;-128.00;-1.00;-1.00;106590;1253;1012665;-68
2023/07/26 05:05:34;;;;;;;8.20;1.80;;;;;;;-128.00;-1.00;-1.00;106669;1253;1012898;-68
2023/07/26 05:08:22;;;;;;;9.50;3.20;;;;;;;-128.00;-1.00;-1.00;106614;1255;1012354;-67
2023/07/26 05:11:08;;;;;;;8.00;2.50;;;;;;;-128.00;-1.00;-1.00;106750;1254;1010351;-68
2023/07/26 05:13:55;;;;;;;7.00;1.80;;;;;;;-128.00;-1.00;-1.00;106532;1253;1010749;-70
2023/07/26 05:16:41;;;;;;;8.10;1.90;;;;;;;-128.00;-1.00;-1.00;106462;1254;1012389;-71
2023/07/26 05:19:28;;;;;;;7.90;2.10;;;;;;;-128.00;-1.00;-1.00;106794;1254;1012490;-69
2023/07/26 05:22:15;;;;;;;6.00;1.70;;;;;;;-128.00;-1.00;-1.00;106793;1257;1012359;-74
2023/07/26 05:25:01;;;;;;;7.60;1.90;;;;;;;-128.00;-1.00;-1.00;106547;1253;1010645;-71
2023/07/26 05:27:48;;;;;;;8.20;1.90;;;;;;;-128.00;-1.00;-1.00;106819;1254;1010670;-71
2023/07/26 05:30:42;;;;;;;7.70;2.00;;;;;;;-128.00;-1.00;-1.00;106843;1258;1013047;-71
2023/07/26 05:33:31;;;;;;;8.10;2.20;;;;;;;-128.00;-1.00;-1.00;106595;1254;1013052;-71
2023/07/26 05:36:17;;;;;;;8.10;2.10;;;;;;;-128.00;-1.00;-1.00;106660;1255;1012925;-72
2023/07/26 05:39:04;;;;;;;8.00;2.40;;;;;;;-128.00;-1.00;-1.00;106645;1254;1010680;-70
2023/07/26 05:41:51;;;;;;;9.70;2.40;;;;;;;-128.00;-1.00;-1.00;106584;1254;1010927;-71
2023/07/26 05:44:40;;;;;;;7.50;2.00;;;;;;;-128.00;-1.00;-1.00;106731;1253;1012594;-70
2023/07/26 05:47:27;;;;;;;7.10;2.00;;;;;;;-128.00;-1.00;-1.00;106637;1259;1013047;-70
2023/07/26 05:50:15;;;;;;;6.50;1.90;;;;;;;-128.00;-1.00;-1.00;106526;1254;1012322;-73
2023/07/26 05:53:02;;;;;;;7.00;2.00;;;;;;;-128.00;-1.00;-1.00;106595;1254;1010581;-70
2023/07/26 05:55:48;;;;;;;6.60;2.10;;;;;;;-128.00;-1.00;-1.00;106649;1254;1010444;-71
2023/07/26 05:58:35;;;;;;;7.00;2.20;;;;;;;-128.00;-1.00;-1.00;106568;1257;1012386;-70
2023/07/26 06:01:21;;;;;;;5.70;1.50;;;;;;;-128.00;-1.00;-1.00;106665;1253;1012004;-70
2023/07/26 06:04:08;;;;;;;6.80;1.80;;;;;;;-128.00;-1.00;-1.00;106704;1253;1013347;-73
2023/07/26 06:06:56;;;;;;;8.20;2.00;;;;;;;-128.00;-1.00;-1.00;106700;1253;1009662;-70
2023/07/26 06:09:43;;;;;;;6.30;1.60;;;;;;;-128.00;-1.00;-1.00;106591;1254;1010091;-70
2023/07/26 06:12:30;;;;;;;8.00;1.70;;;;;;;-128.00;-1.00;-1.00;106857;1253;1012911;-71
2023/07/26 06:15:17;;;;;;;8.00;1.90;;;;;;;-128.00;-1.00;-1.00;106574;1254;1013073;-71
2023/07/26 06:18:04;;;;;;;6.90;2.00;;;;;;;-128.00;-1.00;-1.00;106675;1253;1013094;-72
2023/07/26 06:20:51;;;;;;;8.30;2.00;;;;;;;-128.00;-1.00;-1.00;106641;1254;1009747;-71
2023/07/26 06:23:38;;;;;;;5.90;2.00;;;;;;;-128.00;-1.00;-1.00;106595;1253;1010692;-72
2023/07/26 06:26:29;;;;;;;6.60;1.70;;;;;;;-128.00;-1.00;-1.00;106435;1254;1013719;-73
2023/07/26 06:29:16;;;;;;;6.40;1.90;;;;;;;-128.00;-1.00;-1.00;106501;1258;1012516;-70
2023/07/26 06:32:07;;;;;;;6.40;2.10;;;;;;;-128.00;-1.00;-1.00;106620;1254;1012365;-71
2023/07/26 06:35:02;;;;;;;7.30;2.20;;;;;;;-128.00;-1.00;-1.00;106833;1254;1009618;-72
2023/07/26 06:37:51;;;;;;;6.50;2.10;;;;;;;-128.00;-1.00;-1.00;106635;1253;1011517;-71
2023/07/26 06:40:37;;;;;;;7.00;2.20;;;;;;;-128.00;-1.00;-1.00;106481;1254;1012794;-71
2023/07/26 06:43:27;;;;;;;6.40;1.80;;;;;;;-128.00;-1.00;-1.00;106653;1253;1012457;-71
2023/07/26 06:46:14;;;;;;;6.50;1.70;;;;;;;-128.00;-1.00;-1.00;106602;1261;1012223;-71
2023/07/26 06:49:02;;;;;;;7.40;1.60;;;;;;;-128.00;-1.00;-1.00;106571;1253;1010776;-72
2023/07/26 06:51:52;;;;;;;6.40;2.00;;;;;;;-128.00;-1.00;-1.00;106522;1254;1011198;-71
2023/07/26 06:54:39;;;;;;;7.20;1.90;;;;;;;-128.00;-1.00;-1.00;106822;1254;1012887;-72
2023/07/26 06:57:26;;;;;;;6.90;2.10;;;;;;;-128.00;-1.00;-1.00;106581;1254;1012387;-71
2023/07/26 07:00:16;;;;;;;7.40;2.10;;;;;;;-128.00;-1.00;-1.00;106640;1254;1012498;-69
2023/07/26 07:03:03;;;;;;;7.00;1.90;;;;;;;-128.00;-1.00;-1.00;106567;1254;1009694;-70
2023/07/26 07:05:51;;;;;;;7.30;1.70;;;;;;;-128.00;-1.00;-1.00;106670;1254;1010699;-71
2023/07/26 07:08:38;;;;;;;7.50;1.90;;;;;;;-128.00;-1.00;-1.00;106555;1254;1013333;-71
2023/07/26 07:11:25;;;;;;;8.30;1.90;;;;;;;-128.00;-1.00;-1.00;106596;1254;1012639;-73
2023/07/26 07:14:15;;;;;;;8.30;1.90;;;;;;;-128.00;-1.00;-1.00;106694;1254;1012529;-72
2023/07/26 07:17:05;;;;;;;7.10;2.20;;;;;;;-128.00;-1.00;-1.00;106642;1254;1008958;-71
2023/07/26 07:19:52;;;;;;;7.70;2.20;;;;;;;-128.00;-1.00;-1.00;106612;1253;1010374;-71
2023/07/26 07:22:40;;;;;;;6.70;2.10;;;;;;;-128.00;-1.00;-1.00;106641;1253;1012311;-71
2023/07/26 07:25:27;;;;;;;8.40;2.30;;;;;;;-128.00;-1.00;-1.00;106673;1253;1011790;-71
2023/07/26 07:28:17;;;;;;;6.30;1.80;;;;;;;-128.00;-1.00;-1.00;106643;1254;1013194;-69
2023/07/26 07:31:04;;;;;;;6.60;2.10;;;;;;;-128.00;-1.00;-1.00;106822;1253;1009448;-73
2023/07/26 07:33:50;;;;;;;11.10;3.90;;;;;;;-128.00;-1.00;-1.00;106457;1254;1011254;-70
2023/07/26 07:36:37;;;;;;;7.60;1.90;;;;;;;-128.00;-1.00;-1.00;106533;1253;1012616;-71
2023/07/26 07:39:24;;;;;;;8.10;2.20;;;;;;;-128.00;-1.00;-1.00;106505;1254;1012810;-70
2023/07/26 07:42:11;;;;;;;7.20;1.90;;;;;;;-128.00;-1.00;-1.00;106704;1254;1012058;-73
2023/07/26 07:44:57;;;;;;;7.20;1.80;;;;;;;-128.00;-1.00;-1.00;106583;1253;1010392;-71
2023/07/26 07:47:43;;;;;;;7.40;1.90;;;;;;;-128.00;-1.00;-1.00;106541;1254;1010669;-75
2023/07/26 07:50:30;;;;;;;8.10;1.80;;;;;;;-128.00;-1.00;-1.00;106471;1254;1012280;-74
2023/07/26 07:53:16;;;;;;;7.70;1.60;;;;;;;-128.00;-1.00;-1.00;106601;1254;1012266;-76
2023/07/26 07:56:03;;;;;;;7.20;1.50;;;;;;;-128.00;-1.00;-1.00;106870;1253;1012716;-73
2023/07/26 07:58:50;;;;;;;5.80;1.40;;;;;;;-128.00;-1.00;-1.00;106644;1253;1010255;-73
2023/07/26 08:01:37;;;;;;;10.40;4.20;;;;;;;-128.00;-1.00;-1.00;106498;1253;1011344;-75
2023/07/26 08:04:27;;;;;;;7.20;2.50;;;;;;;-128.00;-1.00;-1.00;106511;1253;1012298;-73
2023/07/26 08:07:15;;;;;;;8.90;1.80;;;;;;;-128.00;-1.00;-1.00;106580;1254;1011968;-75
2023/07/26 08:10:03;;;;;;;7.10;1.60;;;;;;;-128.00;-1.00;-1.00;106583;1253;1012283;-74
2023/07/26 08:13:03;;;;;;;7.40;1.80;;;;;;;-128.00;-1.00;-1.00;106653;1254;1010801;-75
2023/07/26 08:16:03;;;;;;;7.80;1.50;;;;;;;-128.00;-1.00;-1.00;106486;1254;1010831;-75
2023/07/26 08:18:52;;;;;;;6.20;1.70;;;;;;;-128.00;-1.00;-1.00;106518;1254;1013332;-75
2023/07/26 08:21:42;;;;;;;7.60;1.60;;;;;;;-128.00;-1.00;-1.00;106619;1256;1012463;-75
2023/07/26 08:24:29;;;;;;;7.00;1.80;;;;;;;-128.00;-1.00;-1.00;106516;1254;1012395;-73
2023/07/26 08:27:16;;;;;;;6.40;1.50;;;;;;;-128.00;-1.00;-1.00;106789;1254;1010300;-73
2023/07/26 08:30:04;;;;;;;7.00;1.70;;;;;;;-128.00;-1.00;-1.00;106690;1254;1010983;-73
2023/07/26 08:32:51;;;;;;;6.70;1.60;;;;;;;-128.00;-1.00;-1.00;106664;1254;1012638;-76
2023/07/26 08:35:39;;;;;;;6.60;1.50;;;;;;;-128.00;-1.00;-1.00;106569;1253;1012473;-76
2023/07/26 08:38:28;;;;;;;5.90;1.50;;;;;;;-128.00;-1.00;-1.00;106700;1254;1013417;-71
2023/07/26 08:41:16;;;;;;;6.20;1.40;;;;;;;-128.00;-1.00;-1.00;106771;1254;1010267;-70
2023/07/26 08:44:05;;;;;;;5.90;1.20;;;;;;;-128.00;-1.00;-1.00;106353;1259;1011153;-73
2023/07/26 08:46:56;;;;;;;6.70;1.30;;;;;;;-128.00;-1.00;-1.00;106337;1259;1012885;-76
2023/07/26 08:49:51;;;;;;;5.50;1.20;;;;;;;-128.00;-1.00;-1.00;106307;1259;1012315;-77
2023/07/26 08:52:39;;;;;;;6.90;1.20;;;;;;;-128.00;-1.00;-1.00;106329;1259;1013631;-77
2023/07/26 08:55:26;;;;;;;5.20;1.00;;;;;;;-128.00;-1.00;-1.00;106229;1258;1010238;-76
2023/07/26 08:58:15;;;;;;;6.00;1.30;;;;;;;-128.00;-1.00;-1.00;106281;1259;1010483;-77
2023/07/26 09:01:04;;;;;;;6.00;1.50;;;;;;;-128.00;-1.00;-1.00;106291;1260;1012862;-73
2023/07/26 09:03:52;;;;;;;6.70;1.50;;;;;;;-128.00;-1.00;-1.00;106323;1259;1012069;-77
2023/07/26 09:06:40;;;;;;;5.70;1.10;;;;;;;-128.00;-1.00;-1.00;106279;1260;1013217;-74
2023/07/26 09:09:33;;;;;;;5.60;1.40;;;;;;;-128.00;-1.00;-1.00;106290;1258;1009524;-77
2023/07/26 09:12:26;;;;;;;6.60;1.40;;;;;;;-128.00;-1.00;-1.00;106191;1260;1010989;-75
2023/07/26 09:15:20;;;;;;;8.40;1.70;;;;;;;-128.00;-1.00;-1.00;106349;1257;1012416;-73
2023/07/26 09:18:14;;;;;;;8.00;1.40;;;;;;;-128.00;-1.00;-1.00;106376;1257;1012728;-74
2023/07/26 09:21:07;;;;;;;6.50;1.50;;;;;;;-128.00;-1.00;-1.00;106369;1257;1011934;-73
2023/07/26 09:23:55;;;;;;;7.10;1.30;;;;;;;-128.00;-1.00;-1.00;106398;1257;1009359;-69
2023/07/26 09:26:42;;;;;;;7.40;1.60;;;;;;;-128.00;-1.00;-1.00;106335;1257;1011354;-72
2023/07/26 09:29:29;;;;;;;7.90;1.80;;;;;;;-128.00;-1.00;-1.00;106362;1257;1012289;-70
2023/07/26 09:32:29;;;;;;;6.20;1.40;;;;;;;-128.00;-1.00;-1.00;106395;1260;1013222;-70
2023/07/26 09:35:17;;;;;;;7.40;1.70;;;;;;;-128.00;-1.00;-1.00;106421;1257;1012687;-73
2023/07/26 09:38:15;;;;;;;7.10;1.60;;;;;;;-128.00;-1.00;-1.00;106228;1259;1009198;-73
2023/07/26 09:41:22;;;;;;;6.80;1.50;;;;;;;-128.00;-1.00;-1.00;106236;1259;1011014;-72
2023/07/26 09:44:38;;;;;;;6.90;1.50;;;;;;;-128.00;-1.00;-1.00;106302;1257;1013407;-73
2023/07/26 09:47:37;;;;;;;6.00;1.50;;;;;;;-128.00;-1.00;-1.00;106021;1264;1011799;-72
2023/07/26 09:50:29;;;;;;;6.90;1.50;;;;;;;-128.00;-1.00;-1.00;105922;1264;1012050;-68
2023/07/26 09:53:21;;;;;;;7.30;1.70;;;;;;;-128.00;-1.00;-1.00;106031;1264;1010204;-72
2023/07/26 09:56:08;;;;;;;5.50;1.50;;;;;;;-128.00;-1.00;-1.00;105972;1264;1011352;-70
2023/07/26 09:58:54;;;;;;;6.40;1.40;;;;;;;-128.00;-1.00;-1.00;105981;1264;1012990;-68
2023/07/26 10:01:44;;;;;;;6.60;1.40;;;;;;;-128.00;-1.00;-1.00;106033;1263;1012690;-70
2023/07/26 10:04:46;;;;;;;6.60;1.50;;;;;;;-128.00;-1.00;-1.00;105947;1264;1012767;-70
2023/07/26 10:07:32;;;;;;;7.70;1.70;;;;;;;-128.00;-1.00;-1.00;106069;1264;1009669;-70
2023/07/26 10:10:21;;;;;;;8.10;1.60;;;;;;;-128.00;-1.00;-1.00;106048;1264;1011404;-72
2023/07/26 10:13:11;;;;;;;5.50;1.50;;;;;;;-128.00;-1.00;-1.00;106006;1264;1013043;-74
2023/07/26 10:16:01;;;;;;;7.00;1.60;;;;;;;-128.00;-1.00;-1.00;106061;1262;1013670;-76
2023/07/26 10:18:51;;;;;;;8.30;1.70;;;;;;;-128.00;-1.00;-1.00;106151;1261;1012878;-71
2023/07/26 10:21:40;;;;;;;6.20;1.60;;;;;;;-128.00;-1.00;-1.00;106082;1261;1009134;-72
2023/07/26 10:24:31;;;;;;;6.90;2.00;;;;;;;-128.00;-1.00;-1.00;106384;1253;1010624;-72
2023/07/26 10:27:17;;;;;;;7.10;1.90;;;;;;;-128.00;-1.00;-1.00;106772;1253;1012469;-73
2023/07/26 10:30:05;;;;;;;8.10;2.50;;;;;;;-128.00;-1.00;-1.00;106433;1254;1012929;-72
2023/07/26 10:32:52;;;;;;;6.90;1.80;;;;;;;-128.00;-1.00;-1.00;106667;1254;1013241;-71
2023/07/26 10:35:45;;;;;;;7.20;2.10;;;;;;;-128.00;-1.00;-1.00;106675;1253;1010489;-75
2023/07/26 10:38:40;;;;;;;7.00;2.00;;;;;;;-128.00;-1.00;-1.00;106554;1253;1011187;-73
2023/07/26 10:41:29;;;;;;;7.90;2.10;;;;;;;-128.00;-1.00;-1.00;106789;1253;1012679;-74
2023/07/26 10:44:15;;;;;;;6.40;1.60;;;;;;;-128.00;-1.00;-1.00;106671;1253;1012197;-71
2023/07/26 10:47:08;;;;;;;8.20;1.90;;;;;;;-128.00;-1.00;-1.00;106797;1252;1012754;-74
2023/07/26 10:50:06;;;;;;;6.60;1.50;;;;;;;-128.00;-1.00;-1.00;106266;1256;1010070;-70
2023/07/26 10:52:52;;;;;;;6.20;1.60;;;;;;;-128.00;-1.00;-1.00;106399;1256;1010182;-72
2023/07/26 10:55:38;;;;;;;7.20;1.40;;;;;;;-128.00;-1.00;-1.00;106406;1256;1013020;-74
2023/07/26 10:58:25;;;;;;;6.90;1.50;;;;;;;-128.00;-1.00;-1.00;106414;1256;1012960;-70
2023/07/26 11:01:30;;;;;;;6.30;1.60;;;;;;;-128.00;-1.00;-1.00;106421;1256;1012190;-74
2023/07/26 11:04:21;;;;;;;7.00;1.90;;;;;;;-128.00;-1.00;-1.00;106359;1256;1009413;-71
2023/07/26 11:07:08;;;;;;;7.30;1.80;;;;;;;-128.00;-1.00;-1.00;106484;1256;1011407;-71
2023/07/26 11:10:24;;;;;;;37.20;4.20;;;;;;;-128.00;-1.00;-1.00;106471;1257;1012810;-71
2023/07/26 11:13:18;;;;;;;14.30;2.10;;;;;;;-128.00;-1.00;-1.00;106474;1256;1012434;-73
2023/07/26 11:16:05;;;;;;;32.80;5.10;;;;;;;-128.00;-1.00;-1.00;106508;1256;1013204;-75
2023/07/26 11:19:01;;;;;;;22.60;4.30;;;;;;;-128.00;-1.00;-1.00;106378;1256;1010198;-73
2023/07/26 11:21:50;;;;;;;10.70;2.50;;;;;;;-128.00;-1.00;-1.00;106677;1253;1011433;-73
2023/07/26 11:24:36;;;;;;;9.60;1.90;;;;;;;-128.00;-1.00;-1.00;106609;1253;1013096;-73
2023/07/26 11:27:23;;;;;;;7.20;1.70;;;;;;;-128.00;-1.00;-1.00;106820;1253;1012430;-71
2023/07/26 11:30:14;;;;;;;6.60;1.60;;;;;;;-128.00;-1.00;-1.00;106568;1253;1012562;-74
2023/07/26 11:33:01;;;;;;;9.50;1.70;;;;;;;-128.00;-1.00;-1.00;106753;1253;1010978;-70
2023/07/26 11:35:47;;;;;;;9.50;2.00;;;;;;;-128.00;-1.00;-1.00;106654;1254;1011013;-69
2023/07/26 11:38:34;;;;;;;8.70;1.90;;;;;;;-128.00;-1.00;-1.00;106519;1253;1013320;-70
2023/07/26 11:41:21;;;;;;;7.30;1.70;;;;;;;-128.00;-1.00;-1.00;106823;1257;1013441;-72
2023/07/26 11:44:13;;;;;;;8.70;1.90;;;;;;;-128.00;-1.00;-1.00;106479;1253;1012796;-70
2023/07/26 11:47:01;;;;;;;14.60;8.50;;;;;;;-128.00;-1.00;-1.00;106641;1253;1009669;-73
2023/07/26 11:49:51;;;;;;;31.60;10.60;;;;;;;-128.00;-1.00;-1.00;106568;1253;1010371;-71
2023/07/26 11:52:41;;;;;;;52.80;6.60;;;;;;;-128.00;-1.00;-1.00;106535;1253;1012230;-70
2023/07/26 11:55:31;;;;;;;31.80;4.90;;;;;;;-128.00;-1.00;-1.00;106475;1253;1013039;-73
2023/07/26 11:58:35;;;;;;;12.70;3.00;;;;;;;-128.00;-1.00;-1.00;106473;1253;1012787;-68
2023/07/26 12:01:26;;;;;;;8.50;2.10;;;;;;;-128.00;-1.00;-1.00;106662;1253;1011863;-70
2023/07/26 12:04:17;;;;;;;10.60;2.10;;;;;;;-128.00;-1.00;-1.00;106517;1253;1011887;-73
2023/07/26 12:07:16;;;;;;;11.00;2.60;;;;;;;-128.00;-1.00;-1.00;106582;1253;1012354;-74
2023/07/26 12:10:09;;;;;;;25.80;3.90;;;;;;;-128.00;-1.00;-1.00;106540;1253;1012553;-71
2023/07/26 12:13:08;;;;;;;22.50;3.40;;;;;;;-128.00;-1.00;-1.00;106727;1253;1012491;-72
2023/07/26 12:16:02;;;;;;;15.70;2.50;;;;;;;-128.00;-1.00;-1.00;106427;1256;1010274;-71
2023/07/26 12:19:00;;;;;;;11.30;2.40;;;;;;;-128.00;-1.00;-1.00;106414;1256;1010141;-70
2023/07/26 12:21:49;;;;;;;9.40;2.40;;;;;;;-128.00;-1.00;-1.00;106468;1256;1012691;-73
2023/07/26 12:24:53;;;;;;;10.70;2.70;;;;;;;-128.00;-1.00;-1.00;106408;1256;1013031;-70
2023/07/26 12:27:41;;;;;;;7.80;2.40;;;;;;;-128.00;-1.00;-1.00;106536;1256;1012992;-72
2023/07/26 12:30:33;;;;;;;7.30;2.30;;;;;;;-128.00;-1.00;-1.00;106395;1256;1009400;-71
2023/07/26 12:33:23;;;;;;;10.20;2.20;;;;;;;-128.00;-1.00;-1.00;106406;1256;1012195;-70
2023/07/26 12:36:10;;;;;;;8.60;1.90;;;;;;;-128.00;-1.00;-1.00;106437;1258;1013031;-71
2023/07/26 12:38:58;;;;;;;7.60;1.90;;;;;;;-128.00;-1.00;-1.00;106413;1258;1012605;-70
2023/07/26 12:41:46;;;;;;;7.40;2.00;;;;;;;-128.00;-1.00;-1.00;106426;1256;1013544;-72
2023/07/26 12:44:33;;;;;;;7.90;2.10;;;;;;;-128.00;-1.00;-1.00;106320;1256;1010709;-72
2023/07/26 12:47:20;;;;;;;6.90;1.90;;;;;;;-128.00;-1.00;-1.00;106523;1254;1011476;-72
2023/07/26 12:50:16;;;;;;;8.40;2.10;;;;;;;-128.00;-1.00;-1.00;106410;1254;1012860;-70
2023/07/26 12:53:13;;;;;;;9.20;2.20;;;;;;;-128.00;-1.00;-1.00;106755;1253;1012936;-70
2023/07/26 12:56:30;;;;;;;8.00;2.10;;;;;;;-128.00;-1.00;-1.00;106522;1253;1012492;-71
2023/07/26 12:59:28;;;;;;;7.20;2.00;;;;;;;-128.00;-1.00;-1.00;106316;1257;1010028;-72
2023/07/26 13:02:24;;;;;;;6.60;1.90;;;;;;;-128.00;-1.00;-1.00;106294;1257;1010446;-69
2023/07/26 13:05:26;;;;;;;7.60;2.00;;;;;;;-128.00;-1.00;-1.00;106245;1258;1013334;-72
2023/07/26 13:08:23;;;;;;;8.20;2.50;;;;;;;-128.00;-1.00;-1.00;106259;1258;1011812;-73
2023/07/26 13:11:25;;;;;;;9.70;2.70;;;;;;;-128.00;-1.00;-1.00;106422;1257;1012524;-73
2023/07/26 13:14:47;;;;;;;8.50;2.00;;;;;;;-128.00;-1.00;-1.00;106365;1257;1010294;-73
2023/07/26 13:17:51;;;;;;;6.70;2.20;;;;;;;-128.00;-1.00;-1.00;105945;1265;1011409;-73